sensor_id;sensor_type;location;lat;lon;timestamp;P1;durP1;ratioP1;P2;durP2;ratioP2
6898;SDS011;3488;42.616;23.350;2024-02-14T00:02:11;6.32;;;3.28;;
6898;SDS011;3488;42.616;23.350;2024-02-14T00:04:37;7.15;;;4.07;;
6898;SDS011;3488;42.616;23.350;2024-02-14T00:07:03;8.25;;;4.07;;
6898;SDS011;3488;42.616;23.350;2024-02-14T00:09:31;7.35;;;3.92;;
6898;SDS011;3488;42.616;23.350;2024-02-14T00:11:56;8.55;;;4.40;;
6898;SDS011;3488;42.616;23.350;2024-02-14T00:14:22;7.47;;;4.13;;
6898;SDS011;3488;42.616;23.350;2024-02-14T00:16:47;8.32;;;4.38;;
6898;SDS011;3488;42.616;23.350;2024-02-14T00:19:13;7.40;;;4.43;;
6898;SDS011;3488;42.616;23.350;2024-02-14T00:21:39;9.50;;;4.40;;
6898;SDS011;3488;42.616;23.350;2024-02-14T00:24:05;7.57;;;4.15;;
6898;SDS011;3488;42.616;23.350;2024-02-14T00:26:31;8.90;;;4.82;;
6898;SDS011;3488;42.616;23.350;2024-02-14T00:28:56;6.25;;;3.92;;
6898;SDS011;3488;42.616;23.350;2024-02-14T00:31:22;8.85;;;4.70;;
6898;SDS011;3488;42.616;23.350;2024-02-14T00:33:47;8.73;;;4.45;;
6898;SDS011;3488;42.616;23.350;2024-02-14T00:36:13;9.15;;;5.65;;
6898;SDS011;3488;42.616;23.350;2024-02-14T00:38:38;9.88;;;4.78;;
6898;SDS011;3488;42.616;23.350;2024-02-14T00:41:04;10.15;;;4.05;;
6898;SDS011;3488;42.616;23.350;2024-02-14T00:43:29;8.43;;;4.55;;
6898;SDS011;3488;42.616;23.350;2024-02-14T00:45:55;8.13;;;4.75;;
6898;SDS011;3488;42.616;23.350;2024-02-14T00:48:23;8.02;;;4.55;;
6898;SDS011;3488;42.616;23.350;2024-02-14T00:50:49;8.60;;;4.18;;
6898;SDS011;3488;42.616;23.350;2024-02-14T00:53:14;9.65;;;4.80;;
6898;SDS011;3488;42.616;23.350;2024-02-14T00:55:40;10.50;;;3.92;;
6898;SDS011;3488;42.616;23.350;2024-02-14T00:58:06;8.32;;;4.38;;
6898;SDS011;3488;42.616;23.350;2024-02-14T01:00:32;8.02;;;4.30;;
6898;SDS011;3488;42.616;23.350;2024-02-14T01:02:57;9.52;;;4.55;;
6898;SDS011;3488;42.616;23.350;2024-02-14T01:05:23;8.20;;;4.47;;
6898;SDS011;3488;42.616;23.350;2024-02-14T01:07:49;8.55;;;5.20;;
6898;SDS011;3488;42.616;23.350;2024-02-14T01:10:15;8.52;;;4.57;;
6898;SDS011;3488;42.616;23.350;2024-02-14T01:12:41;8.13;;;4.30;;
6898;SDS011;3488;42.616;23.350;2024-02-14T01:15:06;7.07;;;4.32;;
6898;SDS011;3488;42.616;23.350;2024-02-14T01:17:32;8.15;;;4.40;;
6898;SDS011;3488;42.616;23.350;2024-02-14T01:20:00;8.95;;;4.80;;
6898;SDS011;3488;42.616;23.350;2024-02-14T01:22:26;9.05;;;4.40;;
6898;SDS011;3488;42.616;23.350;2024-02-14T01:24:52;7.55;;;4.00;;
6898;SDS011;3488;42.616;23.350;2024-02-14T01:27:17;10.07;;;4.60;;
6898;SDS011;3488;42.616;23.350;2024-02-14T01:29:43;10.00;;;4.75;;
6898;SDS011;3488;42.616;23.350;2024-02-14T01:32:09;9.35;;;5.10;;
6898;SDS011;3488;42.616;23.350;2024-02-14T01:34:34;9.50;;;5.47;;
6898;SDS011;3488;42.616;23.350;2024-02-14T01:37:00;9.52;;;4.65;;
6898;SDS011;3488;42.616;23.350;2024-02-14T01:39:25;11.13;;;4.15;;
6898;SDS011;3488;42.616;23.350;2024-02-14T01:41:51;9.98;;;4.53;;
6898;SDS011;3488;42.616;23.350;2024-02-14T01:44:17;7.90;;;4.55;;
6898;SDS011;3488;42.616;23.350;2024-02-14T01:46:43;9.38;;;5.10;;
6898;SDS011;3488;42.616;23.350;2024-02-14T01:49:12;8.90;;;5.57;;
6898;SDS011;3488;42.616;23.350;2024-02-14T01:51:41;9.82;;;5.20;;
6898;SDS011;3488;42.616;23.350;2024-02-14T01:54:10;8.65;;;4.82;;
6898;SDS011;3488;42.616;23.350;2024-02-14T01:56:37;11.65;;;4.75;;
6898;SDS011;3488;42.616;23.350;2024-02-14T01:59:03;10.82;;;5.07;;
6898;SDS011;3488;42.616;23.350;2024-02-14T02:01:31;10.57;;;4.90;;
6898;SDS011;3488;42.616;23.350;2024-02-14T02:03:58;9.98;;;4.75;;
6898;SDS011;3488;42.616;23.350;2024-02-14T02:06:24;9.18;;;4.65;;
6898;SDS011;3488;42.616;23.350;2024-02-14T02:08:51;10.07;;;4.70;;
6898;SDS011;3488;42.616;23.350;2024-02-14T02:11:17;6.75;;;4.07;;
6898;SDS011;3488;42.616;23.350;2024-02-14T02:13:43;6.85;;;4.18;;
6898;SDS011;3488;42.616;23.350;2024-02-14T02:16:09;8.63;;;5.03;;
6898;SDS011;3488;42.616;23.350;2024-02-14T02:18:35;8.52;;;4.22;;
6898;SDS011;3488;42.616;23.350;2024-02-14T02:21:02;9.85;;;4.93;;
6898;SDS011;3488;42.616;23.350;2024-02-14T02:23:31;8.38;;;4.07;;
6898;SDS011;3488;42.616;23.350;2024-02-14T02:26:00;5.68;;;3.45;;
6898;SDS011;3488;42.616;23.350;2024-02-14T02:28:26;8.82;;;4.80;;
6898;SDS011;3488;42.616;23.350;2024-02-14T02:30:51;8.10;;;4.22;;
6898;SDS011;3488;42.616;23.350;2024-02-14T02:33:18;8.70;;;4.82;;
6898;SDS011;3488;42.616;23.350;2024-02-14T02:35:44;8.23;;;4.50;;
6898;SDS011;3488;42.616;23.350;2024-02-14T02:38:10;9.70;;;5.13;;
6898;SDS011;3488;42.616;23.350;2024-02-14T02:40:36;9.73;;;5.25;;
6898;SDS011;3488;42.616;23.350;2024-02-14T02:43:02;8.57;;;4.18;;
6898;SDS011;3488;42.616;23.350;2024-02-14T02:45:28;9.20;;;4.13;;
6898;SDS011;3488;42.616;23.350;2024-02-14T02:47:54;8.80;;;4.38;;
6898;SDS011;3488;42.616;23.350;2024-02-14T02:50:20;9.40;;;5.18;;
6898;SDS011;3488;42.616;23.350;2024-02-14T02:52:46;7.80;;;4.28;;
6898;SDS011;3488;42.616;23.350;2024-02-14T02:55:12;8.05;;;4.50;;
6898;SDS011;3488;42.616;23.350;2024-02-14T02:57:40;8.32;;;4.80;;
6898;SDS011;3488;42.616;23.350;2024-02-14T03:00:06;8.82;;;4.75;;
6898;SDS011;3488;42.616;23.350;2024-02-14T03:02:36;8.13;;;4.35;;
6898;SDS011;3488;42.616;23.350;2024-02-14T03:05:06;7.80;;;4.18;;
6898;SDS011;3488;42.616;23.350;2024-02-14T03:07:33;8.63;;;5.07;;
6898;SDS011;3488;42.616;23.350;2024-02-14T03:09:59;10.32;;;4.10;;
6898;SDS011;3488;42.616;23.350;2024-02-14T03:12:25;9.98;;;5.10;;
6898;SDS011;3488;42.616;23.350;2024-02-14T03:14:57;8.23;;;4.40;;
6898;SDS011;3488;42.616;23.350;2024-02-14T03:17:23;7.22;;;3.83;;
6898;SDS011;3488;42.616;23.350;2024-02-14T03:19:49;7.43;;;3.78;;
6898;SDS011;3488;42.616;23.350;2024-02-14T03:22:16;8.05;;;4.28;;
6898;SDS011;3488;42.616;23.350;2024-02-14T03:24:44;8.15;;;4.22;;
6898;SDS011;3488;42.616;23.350;2024-02-14T03:27:11;9.05;;;4.05;;
6898;SDS011;3488;42.616;23.350;2024-02-14T03:29:37;8.25;;;4.50;;
6898;SDS011;3488;42.616;23.350;2024-02-14T03:32:04;8.32;;;4.28;;
6898;SDS011;3488;42.616;23.350;2024-02-14T03:34:31;9.68;;;4.72;;
6898;SDS011;3488;42.616;23.350;2024-02-14T03:37:01;10.48;;;4.93;;
6898;SDS011;3488;42.616;23.350;2024-02-14T03:39:27;12.02;;;4.50;;
6898;SDS011;3488;42.616;23.350;2024-02-14T03:41:54;11.00;;;5.00;;
6898;SDS011;3488;42.616;23.350;2024-02-14T03:44:21;9.95;;;4.85;;
6898;SDS011;3488;42.616;23.350;2024-02-14T03:46:47;8.55;;;4.10;;
6898;SDS011;3488;42.616;23.350;2024-02-14T03:49:13;9.73;;;4.63;;
6898;SDS011;3488;42.616;23.350;2024-02-14T03:51:39;9.15;;;5.22;;
6898;SDS011;3488;42.616;23.350;2024-02-14T03:54:05;11.23;;;4.82;;
6898;SDS011;3488;42.616;23.350;2024-02-14T03:56:30;9.25;;;4.45;;
6898;SDS011;3488;42.616;23.350;2024-02-14T03:58:58;8.93;;;4.22;;
6898;SDS011;3488;42.616;23.350;2024-02-14T04:01:24;7.60;;;4.47;;
6898;SDS011;3488;42.616;23.350;2024-02-14T04:03:50;8.05;;;4.40;;
6898;SDS011;3488;42.616;23.350;2024-02-14T04:06:15;10.18;;;5.28;;
6898;SDS011;3488;42.616;23.350;2024-02-14T04:08:41;9.27;;;5.70;;
6898;SDS011;3488;42.616;23.350;2024-02-14T04:11:08;12.75;;;4.25;;
6898;SDS011;3488;42.616;23.350;2024-02-14T04:13:33;8.20;;;4.38;;
6898;SDS011;3488;42.616;23.350;2024-02-14T04:15:59;7.72;;;4.75;;
6898;SDS011;3488;42.616;23.350;2024-02-14T04:18:25;8.73;;;4.78;;
6898;SDS011;3488;42.616;23.350;2024-02-14T04:20:50;7.82;;;4.35;;
6898;SDS011;3488;42.616;23.350;2024-02-14T04:23:16;8.15;;;4.20;;
6898;SDS011;3488;42.616;23.350;2024-02-14T04:25:42;7.80;;;4.63;;
6898;SDS011;3488;42.616;23.350;2024-02-14T04:28:08;9.23;;;5.00;;
6898;SDS011;3488;42.616;23.350;2024-02-14T04:30:36;7.70;;;3.55;;
6898;SDS011;3488;42.616;23.350;2024-02-14T04:33:03;10.95;;;4.50;;
6898;SDS011;3488;42.616;23.350;2024-02-14T04:35:29;7.63;;;4.60;;
6898;SDS011;3488;42.616;23.350;2024-02-14T04:37:55;10.85;;;5.18;;
6898;SDS011;3488;42.616;23.350;2024-02-14T04:40:21;8.75;;;4.85;;
6898;SDS011;3488;42.616;23.350;2024-02-14T04:42:46;10.48;;;5.72;;
6898;SDS011;3488;42.616;23.350;2024-02-14T04:45:13;10.32;;;5.93;;
6898;SDS011;3488;42.616;23.350;2024-02-14T04:47:39;9.20;;;5.35;;
6898;SDS011;3488;42.616;23.350;2024-02-14T04:50:04;11.52;;;5.72;;
6898;SDS011;3488;42.616;23.350;2024-02-14T04:52:30;11.38;;;5.78;;
6898;SDS011;3488;42.616;23.350;2024-02-14T04:54:56;11.32;;;5.65;;
6898;SDS011;3488;42.616;23.350;2024-02-14T04:57:22;13.68;;;6.13;;
6898;SDS011;3488;42.616;23.350;2024-02-14T04:59:48;12.23;;;5.45;;
6898;SDS011;3488;42.616;23.350;2024-02-14T05:02:13;9.18;;;5.03;;
6898;SDS011;3488;42.616;23.350;2024-02-14T05:04:39;11.88;;;6.38;;
6898;SDS011;3488;42.616;23.350;2024-02-14T05:07:05;10.95;;;5.35;;
6898;SDS011;3488;42.616;23.350;2024-02-14T05:09:31;11.38;;;5.93;;
6898;SDS011;3488;42.616;23.350;2024-02-14T05:11:57;10.38;;;5.70;;
6898;SDS011;3488;42.616;23.350;2024-02-14T05:14:23;11.23;;;6.90;;
6898;SDS011;3488;42.616;23.350;2024-02-14T05:16:49;10.13;;;5.82;;
6898;SDS011;3488;42.616;23.350;2024-02-14T05:19:14;14.02;;;6.95;;
6898;SDS011;3488;42.616;23.350;2024-02-14T05:21:40;8.77;;;4.65;;
6898;SDS011;3488;42.616;23.350;2024-02-14T05:24:06;12.88;;;5.95;;
6898;SDS011;3488;42.616;23.350;2024-02-14T05:26:32;10.25;;;5.80;;
6898;SDS011;3488;42.616;23.350;2024-02-14T05:28:58;17.20;;;7.38;;
6898;SDS011;3488;42.616;23.350;2024-02-14T05:31:28;10.07;;;5.40;;
6898;SDS011;3488;42.616;23.350;2024-02-14T05:34:09;14.70;;;6.57;;
6898;SDS011;3488;42.616;23.350;2024-02-14T05:36:35;14.27;;;6.60;;
6898;SDS011;3488;42.616;23.350;2024-02-14T05:39:01;11.05;;;5.78;;
6898;SDS011;3488;42.616;23.350;2024-02-14T05:41:27;10.57;;;6.10;;
6898;SDS011;3488;42.616;23.350;2024-02-14T05:43:53;15.93;;;6.70;;
6898;SDS011;3488;42.616;23.350;2024-02-14T05:46:18;11.95;;;6.47;;
6898;SDS011;3488;42.616;23.350;2024-02-14T05:48:46;12.25;;;6.75;;
6898;SDS011;3488;42.616;23.350;2024-02-14T05:51:13;11.30;;;5.82;;
6898;SDS011;3488;42.616;23.350;2024-02-14T05:53:39;11.10;;;5.30;;
6898;SDS011;3488;42.616;23.350;2024-02-14T05:56:04;9.90;;;6.13;;
6898;SDS011;3488;42.616;23.350;2024-02-14T05:58:30;10.93;;;6.28;;
6898;SDS011;3488;42.616;23.350;2024-02-14T06:00:57;9.95;;;5.22;;
6898;SDS011;3488;42.616;23.350;2024-02-14T06:03:22;9.90;;;5.70;;
6898;SDS011;3488;42.616;23.350;2024-02-14T06:05:48;9.50;;;5.35;;
6898;SDS011;3488;42.616;23.350;2024-02-14T06:08:13;14.00;;;6.72;;
6898;SDS011;3488;42.616;23.350;2024-02-14T06:10:39;11.63;;;6.78;;
6898;SDS011;3488;42.616;23.350;2024-02-14T06:13:05;15.35;;;8.93;;
6898;SDS011;3488;42.616;23.350;2024-02-14T06:15:30;11.85;;;6.80;;
6898;SDS011;3488;42.616;23.350;2024-02-14T06:17:56;11.32;;;6.15;;
6898;SDS011;3488;42.616;23.350;2024-02-14T06:20:22;10.70;;;5.93;;
6898;SDS011;3488;42.616;23.350;2024-02-14T06:22:48;11.25;;;6.07;;
6898;SDS011;3488;42.616;23.350;2024-02-14T06:25:13;10.68;;;5.63;;
6898;SDS011;3488;42.616;23.350;2024-02-14T06:27:39;9.98;;;5.50;;
6898;SDS011;3488;42.616;23.350;2024-02-14T06:30:05;10.85;;;5.20;;
6898;SDS011;3488;42.616;23.350;2024-02-14T06:32:32;11.13;;;5.90;;
6898;SDS011;3488;42.616;23.350;2024-02-14T06:34:57;10.23;;;6.15;;
6898;SDS011;3488;42.616;23.350;2024-02-14T06:37:23;10.75;;;5.70;;
6898;SDS011;3488;42.616;23.350;2024-02-14T06:39:49;11.57;;;6.22;;
6898;SDS011;3488;42.616;23.350;2024-02-14T06:42:15;11.75;;;5.93;;
6898;SDS011;3488;42.616;23.350;2024-02-14T06:44:44;11.18;;;6.35;;
6898;SDS011;3488;42.616;23.350;2024-02-14T06:47:10;10.75;;;6.35;;
6898;SDS011;3488;42.616;23.350;2024-02-14T06:49:36;11.45;;;6.03;;
6898;SDS011;3488;42.616;23.350;2024-02-14T06:52:02;9.43;;;4.53;;
6898;SDS011;3488;42.616;23.350;2024-02-14T06:54:29;8.93;;;5.65;;
6898;SDS011;3488;42.616;23.350;2024-02-14T06:56:54;11.07;;;5.35;;
6898;SDS011;3488;42.616;23.350;2024-02-14T06:59:20;10.65;;;5.43;;
6898;SDS011;3488;42.616;23.350;2024-02-14T07:01:46;8.68;;;4.70;;
6898;SDS011;3488;42.616;23.350;2024-02-14T07:04:11;10.50;;;4.72;;
6898;SDS011;3488;42.616;23.350;2024-02-14T07:06:36;11.13;;;5.72;;
6898;SDS011;3488;42.616;23.350;2024-02-14T07:09:02;13.48;;;6.60;;
6898;SDS011;3488;42.616;23.350;2024-02-14T07:11:28;9.18;;;5.45;;
6898;SDS011;3488;42.616;23.350;2024-02-14T07:13:54;10.57;;;5.50;;
6898;SDS011;3488;42.616;23.350;2024-02-14T07:16:21;8.55;;;4.75;;
6898;SDS011;3488;42.616;23.350;2024-02-14T07:18:47;8.57;;;5.28;;
6898;SDS011;3488;42.616;23.350;2024-02-14T07:21:12;9.13;;;5.05;;
6898;SDS011;3488;42.616;23.350;2024-02-14T07:23:38;9.85;;;5.32;;
6898;SDS011;3488;42.616;23.350;2024-02-14T07:26:03;9.50;;;6.55;;
6898;SDS011;3488;42.616;23.350;2024-02-14T07:28:29;8.52;;;4.88;;
6898;SDS011;3488;42.616;23.350;2024-02-14T07:30:55;8.43;;;5.00;;
6898;SDS011;3488;42.616;23.350;2024-02-14T07:33:20;12.23;;;4.85;;
6898;SDS011;3488;42.616;23.350;2024-02-14T07:35:46;10.65;;;5.82;;
6898;SDS011;3488;42.616;23.350;2024-02-14T07:38:13;8.65;;;4.85;;
6898;SDS011;3488;42.616;23.350;2024-02-14T07:40:39;8.40;;;4.22;;
6898;SDS011;3488;42.616;23.350;2024-02-14T07:43:04;9.55;;;4.93;;
6898;SDS011;3488;42.616;23.350;2024-02-14T07:45:32;8.60;;;4.85;;
6898;SDS011;3488;42.616;23.350;2024-02-14T07:47:57;8.05;;;4.88;;
6898;SDS011;3488;42.616;23.350;2024-02-14T07:50:23;8.60;;;4.57;;
6898;SDS011;3488;42.616;23.350;2024-02-14T07:52:49;7.32;;;4.28;;
6898;SDS011;3488;42.616;23.350;2024-02-14T07:55:14;9.50;;;4.95;;
6898;SDS011;3488;42.616;23.350;2024-02-14T07:57:40;9.23;;;4.53;;
6898;SDS011;3488;42.616;23.350;2024-02-14T08:00:07;8.05;;;4.57;;
6898;SDS011;3488;42.616;23.350;2024-02-14T08:02:34;8.38;;;4.82;;
6898;SDS011;3488;42.616;23.350;2024-02-14T08:05:00;9.50;;;4.82;;
6898;SDS011;3488;42.616;23.350;2024-02-14T08:07:26;9.55;;;4.63;;
6898;SDS011;3488;42.616;23.350;2024-02-14T08:09:52;8.95;;;5.35;;
6898;SDS011;3488;42.616;23.350;2024-02-14T08:12:18;9.60;;;5.53;;
6898;SDS011;3488;42.616;23.350;2024-02-14T08:14:44;9.63;;;5.07;;
6898;SDS011;3488;42.616;23.350;2024-02-14T08:17:10;10.68;;;5.20;;
6898;SDS011;3488;42.616;23.350;2024-02-14T08:19:36;9.93;;;5.38;;
6898;SDS011;3488;42.616;23.350;2024-02-14T08:22:01;12.25;;;5.72;;
6898;SDS011;3488;42.616;23.350;2024-02-14T08:24:27;9.32;;;5.22;;
6898;SDS011;3488;42.616;23.350;2024-02-14T08:26:53;12.07;;;5.47;;
6898;SDS011;3488;42.616;23.350;2024-02-14T08:29:20;9.43;;;5.28;;
6898;SDS011;3488;42.616;23.350;2024-02-14T08:31:46;11.27;;;5.97;;
6898;SDS011;3488;42.616;23.350;2024-02-14T08:34:13;11.07;;;6.20;;
6898;SDS011;3488;42.616;23.350;2024-02-14T08:36:39;9.35;;;5.05;;
6898;SDS011;3488;42.616;23.350;2024-02-14T08:39:09;8.40;;;4.47;;
6898;SDS011;3488;42.616;23.350;2024-02-14T08:41:38;10.35;;;5.25;;
6898;SDS011;3488;42.616;23.350;2024-02-14T08:44:06;9.85;;;5.22;;
6898;SDS011;3488;42.616;23.350;2024-02-14T08:46:32;9.48;;;5.32;;
6898;SDS011;3488;42.616;23.350;2024-02-14T08:48:59;10.65;;;5.93;;
6898;SDS011;3488;42.616;23.350;2024-02-14T08:51:33;11.10;;;5.88;;
6898;SDS011;3488;42.616;23.350;2024-02-14T08:53:59;8.98;;;5.13;;
6898;SDS011;3488;42.616;23.350;2024-02-14T08:56:25;9.13;;;4.95;;
6898;SDS011;3488;42.616;23.350;2024-02-14T08:58:51;9.10;;;5.90;;
6898;SDS011;3488;42.616;23.350;2024-02-14T09:01:16;8.73;;;4.90;;
6898;SDS011;3488;42.616;23.350;2024-02-14T09:03:42;9.90;;;5.82;;
6898;SDS011;3488;42.616;23.350;2024-02-14T09:06:12;11.85;;;5.80;;
6898;SDS011;3488;42.616;23.350;2024-02-14T09:08:39;9.70;;;5.72;;
6898;SDS011;3488;42.616;23.350;2024-02-14T09:11:05;9.00;;;4.63;;
6898;SDS011;3488;42.616;23.350;2024-02-14T09:13:31;7.55;;;3.78;;
6898;SDS011;3488;42.616;23.350;2024-02-14T09:15:56;6.55;;;3.75;;
6898;SDS011;3488;42.616;23.350;2024-02-14T09:18:22;7.80;;;4.93;;
6898;SDS011;3488;42.616;23.350;2024-02-14T09:20:49;8.57;;;5.10;;
6898;SDS011;3488;42.616;23.350;2024-02-14T09:23:17;9.30;;;6.18;;
6898;SDS011;3488;42.616;23.350;2024-02-14T09:25:45;9.00;;;4.95;;
6898;SDS011;3488;42.616;23.350;2024-02-14T09:28:12;7.65;;;4.65;;
6898;SDS011;3488;42.616;23.350;2024-02-14T09:30:39;9.25;;;4.53;;
6898;SDS011;3488;42.616;23.350;2024-02-14T09:33:05;10.77;;;5.55;;
6898;SDS011;3488;42.616;23.350;2024-02-14T09:35:30;8.85;;;4.95;;
6898;SDS011;3488;42.616;23.350;2024-02-14T09:37:56;10.65;;;5.45;;
6898;SDS011;3488;42.616;23.350;2024-02-14T09:40:21;10.55;;;5.20;;
6898;SDS011;3488;42.616;23.350;2024-02-14T09:42:57;7.75;;;4.60;;
6898;SDS011;3488;42.616;23.350;2024-02-14T09:45:28;7.15;;;4.35;;
6898;SDS011;3488;42.616;23.350;2024-02-14T09:47:58;9.77;;;4.53;;
6898;SDS011;3488;42.616;23.350;2024-02-14T09:50:24;8.85;;;4.85;;
6898;SDS011;3488;42.616;23.350;2024-02-14T09:52:51;11.27;;;5.57;;
6898;SDS011;3488;42.616;23.350;2024-02-14T09:55:19;8.20;;;4.35;;
6898;SDS011;3488;42.616;23.350;2024-02-14T09:57:45;9.23;;;5.43;;
6898;SDS011;3488;42.616;23.350;2024-02-14T10:00:13;9.85;;;5.03;;
6898;SDS011;3488;42.616;23.350;2024-02-14T10:02:40;8.93;;;5.50;;
6898;SDS011;3488;42.616;23.350;2024-02-14T10:05:06;8.38;;;4.18;;
6898;SDS011;3488;42.616;23.350;2024-02-14T10:07:39;8.88;;;4.35;;
6898;SDS011;3488;42.616;23.350;2024-02-14T10:10:08;10.10;;;4.97;;
6898;SDS011;3488;42.616;23.350;2024-02-14T10:12:35;9.40;;;5.05;;
6898;SDS011;3488;42.616;23.350;2024-02-14T10:15:00;8.30;;;4.25;;
6898;SDS011;3488;42.616;23.350;2024-02-14T10:17:27;8.02;;;3.80;;
6898;SDS011;3488;42.616;23.350;2024-02-14T10:19:59;8.52;;;4.63;;
6898;SDS011;3488;42.616;23.350;2024-02-14T10:22:36;7.75;;;4.53;;
6898;SDS011;3488;42.616;23.350;2024-02-14T10:25:04;12.40;;;5.35;;
6898;SDS011;3488;42.616;23.350;2024-02-14T10:27:37;8.48;;;4.43;;
6898;SDS011;3488;42.616;23.350;2024-02-14T10:30:04;10.82;;;4.57;;
6898;SDS011;3488;42.616;23.350;2024-02-14T10:32:34;9.13;;;4.95;;
6898;SDS011;3488;42.616;23.350;2024-02-14T10:34:59;7.75;;;4.75;;
6898;SDS011;3488;42.616;23.350;2024-02-14T10:37:26;7.15;;;4.35;;
6898;SDS011;3488;42.616;23.350;2024-02-14T10:39:55;8.43;;;4.43;;
6898;SDS011;3488;42.616;23.350;2024-02-14T10:42:24;8.40;;;4.10;;
6898;SDS011;3488;42.616;23.350;2024-02-14T10:44:49;8.10;;;4.50;;
6898;SDS011;3488;42.616;23.350;2024-02-14T10:47:19;7.85;;;4.38;;
6898;SDS011;3488;42.616;23.350;2024-02-14T10:49:48;8.90;;;4.40;;
6898;SDS011;3488;42.616;23.350;2024-02-14T10:52:16;8.82;;;4.32;;
6898;SDS011;3488;42.616;23.350;2024-02-14T10:54:45;7.03;;;3.75;;
6898;SDS011;3488;42.616;23.350;2024-02-14T10:57:23;8.70;;;4.68;;
6898;SDS011;3488;42.616;23.350;2024-02-14T10:59:49;6.00;;;3.25;;
6898;SDS011;3488;42.616;23.350;2024-02-14T11:02:16;11.10;;;4.45;;
6898;SDS011;3488;42.616;23.350;2024-02-14T11:04:43;8.65;;;4.78;;
6898;SDS011;3488;42.616;23.350;2024-02-14T11:07:10;8.05;;;4.72;;
6898;SDS011;3488;42.616;23.350;2024-02-14T11:09:37;8.77;;;4.72;;
6898;SDS011;3488;42.616;23.350;2024-02-14T11:12:04;8.65;;;4.90;;
6898;SDS011;3488;42.616;23.350;2024-02-14T11:14:34;8.15;;;4.55;;
6898;SDS011;3488;42.616;23.350;2024-02-14T11:17:09;8.77;;;4.57;;
6898;SDS011;3488;42.616;23.350;2024-02-14T11:19:37;9.05;;;4.90;;
6898;SDS011;3488;42.616;23.350;2024-02-14T11:22:13;8.73;;;4.75;;
6898;SDS011;3488;42.616;23.350;2024-02-14T11:24:45;7.97;;;4.80;;
6898;SDS011;3488;42.616;23.350;2024-02-14T11:27:11;7.65;;;4.40;;
6898;SDS011;3488;42.616;23.350;2024-02-14T11:29:38;6.63;;;4.18;;
6898;SDS011;3488;42.616;23.350;2024-02-14T11:32:08;9.80;;;4.90;;
6898;SDS011;3488;42.616;23.350;2024-02-14T11:34:34;8.90;;;4.72;;
6898;SDS011;3488;42.616;23.350;2024-02-14T11:37:01;8.15;;;4.85;;
6898;SDS011;3488;42.616;23.350;2024-02-14T11:39:27;8.70;;;4.80;;
6898;SDS011;3488;42.616;23.350;2024-02-14T11:41:52;9.15;;;4.68;;
6898;SDS011;3488;42.616;23.350;2024-02-14T11:44:21;8.82;;;4.22;;
6898;SDS011;3488;42.616;23.350;2024-02-14T11:46:50;9.10;;;4.55;;
6898;SDS011;3488;42.616;23.350;2024-02-14T11:49:16;8.07;;;4.50;;
6898;SDS011;3488;42.616;23.350;2024-02-14T11:51:42;9.13;;;4.80;;
6898;SDS011;3488;42.616;23.350;2024-02-14T11:54:08;8.93;;;4.93;;
6898;SDS011;3488;42.616;23.350;2024-02-14T11:56:35;8.23;;;4.65;;
6898;SDS011;3488;42.616;23.350;2024-02-14T11:59:02;9.85;;;4.45;;
6898;SDS011;3488;42.616;23.350;2024-02-14T12:01:30;11.00;;;5.32;;
6898;SDS011;3488;42.616;23.350;2024-02-14T12:03:58;8.68;;;4.60;;
6898;SDS011;3488;42.616;23.350;2024-02-14T12:06:29;8.38;;;4.63;;
6898;SDS011;3488;42.616;23.350;2024-02-14T12:09:01;8.75;;;4.30;;
6898;SDS011;3488;42.616;23.350;2024-02-14T12:11:33;7.35;;;4.20;;
6898;SDS011;3488;42.616;23.350;2024-02-14T12:14:02;10.15;;;4.72;;
6898;SDS011;3488;42.616;23.350;2024-02-14T12:16:29;8.48;;;4.50;;
6898;SDS011;3488;42.616;23.350;2024-02-14T12:19:04;8.77;;;4.13;;
6898;SDS011;3488;42.616;23.350;2024-02-14T12:21:38;8.60;;;4.57;;
6898;SDS011;3488;42.616;23.350;2024-02-14T12:24:08;8.15;;;4.53;;
6898;SDS011;3488;42.616;23.350;2024-02-14T12:26:35;7.25;;;4.63;;
6898;SDS011;3488;42.616;23.350;2024-02-14T12:29:06;8.68;;;5.07;;
6898;SDS011;3488;42.616;23.350;2024-02-14T12:31:32;9.82;;;4.47;;
6898;SDS011;3488;42.616;23.350;2024-02-14T12:33:59;7.55;;;4.13;;
6898;SDS011;3488;42.616;23.350;2024-02-14T12:36:27;6.78;;;4.07;;
6898;SDS011;3488;42.616;23.350;2024-02-14T12:38:58;7.88;;;4.15;;
6898;SDS011;3488;42.616;23.350;2024-02-14T12:41:24;9.63;;;3.88;;
6898;SDS011;3488;42.616;23.350;2024-02-14T12:43:51;8.38;;;3.63;;
6898;SDS011;3488;42.616;23.350;2024-02-14T12:46:18;7.85;;;4.13;;
6898;SDS011;3488;42.616;23.350;2024-02-14T12:48:44;6.50;;;3.90;;
6898;SDS011;3488;42.616;23.350;2024-02-14T12:51:10;9.52;;;4.25;;
6898;SDS011;3488;42.616;23.350;2024-02-14T12:53:36;5.55;;;3.67;;
6898;SDS011;3488;42.616;23.350;2024-02-14T12:56:01;8.70;;;3.95;;
6898;SDS011;3488;42.616;23.350;2024-02-14T12:58:29;9.00;;;4.53;;
6898;SDS011;3488;42.616;23.350;2024-02-14T13:00:56;9.48;;;4.10;;
6898;SDS011;3488;42.616;23.350;2024-02-14T13:03:21;8.85;;;4.15;;
6898;SDS011;3488;42.616;23.350;2024-02-14T13:05:47;8.52;;;4.43;;
6898;SDS011;3488;42.616;23.350;2024-02-14T13:08:13;7.32;;;4.00;;
6898;SDS011;3488;42.616;23.350;2024-02-14T13:10:41;9.50;;;4.70;;
6898;SDS011;3488;42.616;23.350;2024-02-14T13:13:09;9.23;;;4.22;;
6898;SDS011;3488;42.616;23.350;2024-02-14T13:15:35;7.63;;;4.22;;
6898;SDS011;3488;42.616;23.350;2024-02-14T13:18:01;10.00;;;4.30;;
6898;SDS011;3488;42.616;23.350;2024-02-14T13:20:28;7.60;;;4.13;;
6898;SDS011;3488;42.616;23.350;2024-02-14T13:22:53;7.53;;;3.67;;
6898;SDS011;3488;42.616;23.350;2024-02-14T13:25:19;9.07;;;4.50;;
6898;SDS011;3488;42.616;23.350;2024-02-14T13:27:45;9.65;;;5.20;;
6898;SDS011;3488;42.616;23.350;2024-02-14T13:30:11;9.27;;;4.28;;
6898;SDS011;3488;42.616;23.350;2024-02-14T13:32:42;8.07;;;4.13;;
6898;SDS011;3488;42.616;23.350;2024-02-14T13:35:08;9.63;;;4.10;;
6898;SDS011;3488;42.616;23.350;2024-02-14T13:37:34;9.05;;;4.68;;
6898;SDS011;3488;42.616;23.350;2024-02-14T13:40:01;7.47;;;4.03;;
6898;SDS011;3488;42.616;23.350;2024-02-14T13:42:29;8.43;;;4.18;;
6898;SDS011;3488;42.616;23.350;2024-02-14T13:44:57;8.38;;;4.25;;
6898;SDS011;3488;42.616;23.350;2024-02-14T13:47:23;9.07;;;4.75;;
6898;SDS011;3488;42.616;23.350;2024-02-14T13:49:52;8.23;;;5.05;;
6898;SDS011;3488;42.616;23.350;2024-02-14T13:52:18;7.25;;;3.83;;
6898;SDS011;3488;42.616;23.350;2024-02-14T13:54:45;7.70;;;3.97;;
6898;SDS011;3488;42.616;23.350;2024-02-14T13:57:10;8.68;;;4.13;;
6898;SDS011;3488;42.616;23.350;2024-02-14T13:59:36;6.80;;;3.92;;
6898;SDS011;3488;42.616;23.350;2024-02-14T14:02:02;6.55;;;3.88;;
6898;SDS011;3488;42.616;23.350;2024-02-14T14:04:27;7.90;;;3.83;;
6898;SDS011;3488;42.616;23.350;2024-02-14T14:06:53;6.68;;;3.38;;
6898;SDS011;3488;42.616;23.350;2024-02-14T14:09:20;6.63;;;3.63;;
6898;SDS011;3488;42.616;23.350;2024-02-14T14:11:45;8.68;;;4.30;;
6898;SDS011;3488;42.616;23.350;2024-02-14T14:14:14;6.55;;;4.18;;
6898;SDS011;3488;42.616;23.350;2024-02-14T14:16:43;6.80;;;3.67;;
6898;SDS011;3488;42.616;23.350;2024-02-14T14:19:09;6.90;;;3.38;;
6898;SDS011;3488;42.616;23.350;2024-02-14T14:21:35;7.93;;;4.57;;
6898;SDS011;3488;42.616;23.350;2024-02-14T14:24:00;9.32;;;4.32;;
6898;SDS011;3488;42.616;23.350;2024-02-14T14:26:26;7.30;;;4.38;;
6898;SDS011;3488;42.616;23.350;2024-02-14T14:28:51;7.20;;;3.90;;
6898;SDS011;3488;42.616;23.350;2024-02-14T14:31:19;7.25;;;4.03;;
6898;SDS011;3488;42.616;23.350;2024-02-14T14:33:45;8.10;;;4.00;;
6898;SDS011;3488;42.616;23.350;2024-02-14T14:36:10;9.02;;;4.65;;
6898;SDS011;3488;42.616;23.350;2024-02-14T14:38:36;8.50;;;4.28;;
6898;SDS011;3488;42.616;23.350;2024-02-14T14:41:03;7.68;;;3.90;;
6898;SDS011;3488;42.616;23.350;2024-02-14T14:43:28;7.13;;;4.15;;
6898;SDS011;3488;42.616;23.350;2024-02-14T14:45:54;8.00;;;3.65;;
6898;SDS011;3488;42.616;23.350;2024-02-14T14:48:22;7.43;;;3.92;;
6898;SDS011;3488;42.616;23.350;2024-02-14T14:50:47;7.07;;;4.05;;
6898;SDS011;3488;42.616;23.350;2024-02-14T14:53:13;9.48;;;3.80;;
6898;SDS011;3488;42.616;23.350;2024-02-14T14:55:52;11.55;;;5.00;;